createdAt,value
2018-09-08T00:00:38.021Z,0
2018-09-08T00:01:48.097Z,0
2018-09-08T00:02:58.152Z,0
2018-09-08T00:04:08.236Z,0
2018-09-08T00:05:18.305Z,0
2018-09-08T00:06:28.170Z,0
2018-09-08T00:07:38.250Z,0
2018-09-08T00:08:48.344Z,0
2018-09-08T00:09:58.456Z,0
2018-09-08T00:11:08.264Z,0
2018-09-08T00:12:18.423Z,0
2018-09-08T00:13:28.492Z,0
2018-09-08T00:14:38.574Z,0
2018-09-08T00:15:48.377Z,0
2018-09-08T00:16:58.202Z,0
2018-09-08T00:18:08.308Z,0
2018-09-08T00:19:18.397Z,0
2018-09-08T00:20:28.432Z,0
2018-09-08T00:21:38.507Z,0
2018-09-08T00:22:48.315Z,0
2018-09-08T00:23:58.182Z,0
2018-09-08T00:25:08.270Z,0
2018-09-08T00:26:18.332Z,0
2018-09-08T00:27:28.422Z,0
2018-09-08T00:28:38.248Z,0
2018-09-08T00:29:48.367Z,0
2018-09-08T00:30:58.460Z,0
2018-09-08T00:32:08.264Z,0
2018-09-08T00:33:18.345Z,0
2018-09-08T00:34:28.417Z,0
2018-09-08T00:35:38.549Z,0
2018-09-08T00:36:48.613Z,0
2018-09-08T00:37:58.682Z,0
2018-09-08T00:39:08.798Z,0
2018-09-08T00:40:18.861Z,0
2018-09-08T00:41:28.938Z,0
2018-09-08T00:42:39.015Z,0
2018-09-08T00:43:49.094Z,0
2018-09-08T00:44:59.161Z,0
2018-09-08T00:46:08.984Z,0
2018-09-08T00:47:18.632Z,0
2018-09-08T00:48:28.463Z,0
2018-09-08T00:49:38.517Z,0
2018-09-08T00:50:48.581Z,0
2018-09-08T00:51:58.658Z,0
2018-09-08T00:53:08.736Z,0
2018-09-08T00:54:18.820Z,0
2018-09-08T00:55:28.889Z,0
2018-09-08T00:56:38.690Z,0
2018-09-08T00:57:48.762Z,0
2018-09-08T00:58:58.297Z,0
2018-09-08T01:00:07.833Z,0
2018-09-08T01:01:17.898Z,0
2018-09-08T01:02:27.969Z,0
2018-09-08T01:03:37.848Z,0
2018-09-08T01:04:48.016Z,0
2018-09-08T01:05:58.099Z,0
2018-09-08T01:07:08.167Z,0
2018-09-08T01:08:17.968Z,0
2018-09-08T01:09:28.013Z,0
2018-09-08T01:10:37.597Z,0
2018-09-08T01:11:47.395Z,0
2018-09-08T01:12:56.940Z,0
2018-09-08T01:14:06.774Z,0
2018-09-08T01:15:16.846Z,0
2018-09-08T01:16:26.659Z,0
2018-09-08T01:17:36.707Z,0
2018-09-08T01:18:46.759Z,0
2018-09-08T01:19:56.574Z,0
2018-09-08T01:21:06.648Z,0
2018-09-08T01:22:16.708Z,0
2018-09-08T01:23:26.238Z,0
2018-09-08T01:24:35.783Z,0
2018-09-08T01:25:45.590Z,0
2018-09-08T01:26:55.650Z,0
2018-09-08T01:28:05.713Z,0
2018-09-08T01:29:16.048Z,0
2018-09-08T01:30:26.099Z,0
2018-09-08T01:31:36.175Z,0
2018-09-08T01:32:46.236Z,0
2018-09-08T01:33:56.364Z,0
2018-09-08T01:35:06.443Z,0
2018-09-08T01:36:16.523Z,0
2018-09-08T01:37:26.332Z,0
2018-09-08T01:38:36.423Z,0
2018-09-08T01:39:46.283Z,0
2018-09-08T01:40:56.073Z,0
2018-09-08T01:42:06.168Z,0
2018-09-08T01:43:15.713Z,0
2018-09-08T01:44:25.777Z,0
2018-09-08T01:45:35.648Z,0
2018-09-08T01:46:45.724Z,0
2018-09-08T01:47:55.532Z,0
2018-09-08T01:49:05.742Z,0
2018-09-08T01:50:15.805Z,0
2018-09-08T01:51:25.872Z,0
2018-09-08T01:52:35.930Z,0
2018-09-08T01:53:46.069Z,0
2018-09-08T01:54:55.876Z,0
2018-09-08T01:56:05.952Z,0
2018-09-08T01:57:15.829Z,0
2018-09-08T01:58:25.922Z,0
2018-09-08T01:59:35.980Z,0
2018-09-08T02:00:46.049Z,0
2018-09-08T02:01:56.123Z,0
2018-09-08T02:03:06.242Z,0
2018-09-08T02:04:16.306Z,0
2018-09-08T02:05:26.379Z,0
2018-09-08T02:06:36.464Z,0
2018-09-08T02:07:46.523Z,0
2018-09-08T02:08:56.600Z,0
2018-09-08T02:10:06.669Z,0
2018-09-08T02:11:16.752Z,0
2018-09-08T02:12:26.827Z,0
2018-09-08T02:13:36.897Z,0
2018-09-08T02:14:46.984Z,0
2018-09-08T02:15:57.049Z,0
2018-09-08T02:17:07.147Z,0
2018-09-08T02:18:17.224Z,0
2018-09-08T02:19:27.294Z,0
2018-09-08T02:20:37.350Z,0
2018-09-08T02:21:47.421Z,0
2018-09-08T02:22:57.496Z,0
2018-09-08T02:24:07.554Z,0
2018-09-08T02:25:17.759Z,0
2018-09-08T02:26:27.324Z,0
2018-09-08T02:27:37.127Z,0
2018-09-08T02:28:47.218Z,0
2018-09-08T02:29:57.032Z,0
2018-09-08T02:31:07.115Z,0
2018-09-08T02:32:16.997Z,0
2018-09-08T02:33:27.072Z,0
2018-09-08T02:34:37.196Z,0
2018-09-08T02:35:47.277Z,0
2018-09-08T02:36:57.356Z,0
2018-09-08T02:38:07.612Z,0
2018-09-08T02:39:17.420Z,0
2018-09-08T02:40:27.223Z,0
2018-09-08T02:41:37.028Z,0
2018-09-08T02:42:47.104Z,0
2018-09-08T02:43:56.966Z,0
2018-09-08T02:45:07.045Z,0
2018-09-08T02:46:17.136Z,0
2018-09-08T02:47:27.191Z,0
2018-09-08T02:48:37.262Z,0
2018-09-08T02:49:47.419Z,0
2018-09-08T02:50:57.245Z,0
2018-09-08T02:52:07.311Z,0
2018-09-08T02:53:17.388Z,0
2018-09-08T02:54:27.193Z,0
2018-09-08T02:55:37.361Z,0
2018-09-08T02:56:47.435Z,0
2018-09-08T02:57:57.250Z,0
2018-09-08T02:59:07.041Z,0
2018-09-08T03:00:17.110Z,0
2018-09-08T03:01:26.924Z,0
2018-09-08T03:02:37.003Z,0
2018-09-08T03:35:14.147Z,0
2018-09-08T03:36:24.207Z,0
2018-09-08T03:37:34.003Z,0
2018-09-08T03:38:43.801Z,0
2018-09-08T03:39:53.598Z,0
2018-09-08T03:41:03.668Z,0
2018-09-08T03:42:13.471Z,0
2018-09-08T03:43:23.268Z,0
2018-09-08T03:44:33.345Z,0
2018-09-08T03:45:42.889Z,0
2018-09-08T03:46:52.693Z,0
2018-09-08T03:48:03.269Z,0
2018-09-08T03:49:13.343Z,0
2018-09-08T03:50:23.149Z,0
2018-09-08T03:51:33.014Z,0
2018-09-08T03:52:42.882Z,4
2018-09-08T03:53:52.675Z,4
2018-09-08T03:55:03.248Z,0
2018-09-08T03:56:13.326Z,4
2018-09-08T03:57:23.408Z,4
2018-09-08T03:58:33.577Z,4
2018-09-08T03:59:43.662Z,4
2018-09-08T04:00:53.469Z,4
2018-09-08T04:02:03.530Z,8
2018-09-08T04:03:13.347Z,8
2018-09-08T04:04:23.427Z,12
2018-09-08T04:05:33.380Z,16
2018-09-08T04:06:43.362Z,20
2018-09-08T04:07:53.441Z,20
2018-09-08T04:09:03.501Z,24
2018-09-08T04:10:13.548Z,28
2018-09-08T04:11:23.091Z,36
2018-09-08T04:12:32.869Z,44
2018-09-08T04:13:42.403Z,48
2018-09-08T04:14:52.367Z,56
2018-09-08T04:16:03.222Z,64
2018-09-08T04:17:13.283Z,72
2018-09-08T04:18:23.233Z,80
2018-09-08T04:19:33.282Z,92
2018-09-08T04:20:43.092Z,104
2018-09-08T04:21:53.274Z,116
2018-09-08T04:23:03.336Z,128
2018-09-08T04:24:13.899Z,140
2018-09-08T04:25:23.972Z,148
2018-09-08T04:26:34.051Z,164
2018-09-08T04:27:44.184Z,176
2018-09-08T04:28:53.987Z,188
2018-09-08T04:30:04.118Z,208
2018-09-08T04:31:13.922Z,224
2018-09-08T04:32:23.986Z,240
2018-09-08T04:33:33.854Z,256
2018-09-08T04:34:43.935Z,280
2018-09-08T04:35:53.979Z,300
2018-09-08T04:37:03.788Z,320
2018-09-08T04:38:13.590Z,344
2018-09-08T04:39:23.671Z,368
2018-09-08T04:40:33.749Z,420
2018-09-08T04:41:43.817Z,456
2018-09-08T04:42:53.883Z,476
2018-09-08T04:44:03.709Z,496
2018-09-08T04:45:14.045Z,532
2018-09-08T04:46:24.120Z,568
2018-09-08T04:47:33.937Z,604
2018-09-08T04:48:43.992Z,644
2018-09-08T04:49:54.065Z,684
2018-09-08T04:51:04.188Z,724
2018-09-08T04:52:14.252Z,764
2018-09-08T04:53:24.072Z,812
2018-09-08T04:54:33.688Z,956
2018-09-08T04:55:43.768Z,984
2018-09-08T04:56:53.853Z,972
2018-09-08T04:58:03.669Z,1132
2018-09-08T04:59:13.759Z,1300
2018-09-08T05:00:23.310Z,1240
2018-09-08T05:01:33.116Z,1560
2018-09-08T05:02:42.994Z,1932
2018-09-08T05:03:53.064Z,1844
2018-09-08T05:05:03.278Z,1972
2018-09-08T05:06:13.373Z,2024
2018-09-08T05:07:23.450Z,1884
2018-09-08T05:08:33.531Z,1668
2018-09-08T05:09:43.603Z,2036
2018-09-08T05:10:53.438Z,2076
2018-09-08T05:12:03.507Z,1868
2018-09-08T05:13:13.598Z,1692
2018-09-08T05:14:23.689Z,1748
2018-09-08T05:15:33.760Z,1800
2018-09-08T05:16:43.582Z,1856
2018-09-08T05:17:53.440Z,1900
2018-09-08T05:19:03.581Z,1948
2018-09-08T05:20:13.656Z,1988
2018-09-08T05:21:23.725Z,2040
2018-09-08T05:22:33.807Z,2092
2018-09-08T05:23:43.897Z,2136
2018-09-08T05:24:53.991Z,2200
2018-09-08T05:26:04.073Z,2276
2018-09-08T05:27:14.151Z,2628
2018-09-08T05:28:23.475Z,3032
2018-09-08T05:29:33.287Z,3108
2018-09-08T05:30:43.369Z,3136
2018-09-08T05:31:53.451Z,2900
2018-09-08T05:33:03.276Z,2460
2018-09-08T05:34:13.353Z,2396
2018-09-08T05:35:23.429Z,2400
2018-09-08T05:36:33.509Z,2400
2018-09-08T05:37:43.584Z,2488
2018-09-08T05:38:53.675Z,2488
2018-09-08T05:40:03.860Z,2444
2018-09-08T05:41:13.925Z,2792
2018-09-08T05:42:23.994Z,3584
2018-09-08T05:43:34.092Z,3556
2018-09-08T05:44:44.178Z,2840
2018-09-08T05:45:54.354Z,2516
2018-09-08T05:47:04.439Z,2472
2018-09-08T05:48:14.262Z,2832
2018-09-08T05:49:24.333Z,3720
2018-09-08T05:50:34.426Z,4352
2018-09-08T05:51:44.510Z,4100
2018-09-08T05:52:54.599Z,3324
2018-09-08T05:54:04.678Z,2732
2018-09-08T05:55:14.778Z,2604
2018-09-08T05:56:24.856Z,2948
2018-09-08T05:57:34.942Z,3540
2018-09-08T05:58:45.091Z,3840
2018-09-08T05:59:55.178Z,3576
2018-09-08T06:01:05.471Z,3068
2018-09-08T06:02:15.541Z,2728
2018-09-08T06:03:25.357Z,2636
2018-09-08T06:04:35.175Z,2776
2018-09-08T06:05:45.266Z,2720
2018-09-08T06:06:55.391Z,2676
2018-09-08T06:08:05.500Z,2684
2018-09-08T06:09:15.571Z,2676
2018-09-08T06:10:26.325Z,2672
2018-09-08T06:11:36.409Z,2684
2018-09-08T06:12:46.485Z,2700
2018-09-08T06:13:56.587Z,2712
2018-09-08T06:15:06.393Z,2732
2018-09-08T06:16:16.572Z,2752
2018-09-08T06:17:26.819Z,2796
2018-09-08T06:18:36.948Z,2820
2018-09-08T06:19:47.080Z,2848
2018-09-08T06:20:57.236Z,2872
2018-09-08T06:22:07.510Z,2908
2018-09-08T06:23:17.619Z,2964
2018-09-08T06:24:27.897Z,3012
2018-09-08T06:25:38.068Z,3080
2018-09-08T06:26:48.096Z,3168
2018-09-08T06:27:57.927Z,3260
2018-09-08T06:29:08.540Z,3352
2018-09-08T06:30:18.396Z,3440
2018-09-08T06:31:28.471Z,3532
2018-09-08T06:32:38.564Z,3592
2018-09-08T06:33:48.877Z,3668
2018-09-08T06:34:59.112Z,3732
2018-09-08T06:36:09.252Z,3820
2018-09-08T06:37:19.337Z,3888
2018-09-08T06:38:29.410Z,3940
2018-09-08T06:39:39.517Z,3936
2018-09-08T06:40:49.603Z,3952
2018-09-08T06:41:59.659Z,3888
2018-09-08T06:43:09.730Z,3856
2018-09-08T06:44:19.808Z,3824
2018-09-08T06:45:29.944Z,3812
2018-09-08T06:46:39.758Z,3792
2018-09-08T06:47:49.843Z,3796
2018-09-08T06:48:59.928Z,3784
2018-09-08T06:50:10.012Z,3780
2018-09-08T06:51:20.109Z,3800
2018-09-08T06:52:30.193Z,3816
2018-09-08T06:53:40.276Z,3824
2018-09-08T06:54:50.367Z,3828
2018-09-08T06:56:00.438Z,3844
2018-09-08T06:57:10.510Z,3836
2018-09-08T06:58:20.603Z,3848
2018-09-08T06:59:30.144Z,3852
2018-09-08T07:00:39.977Z,3852
2018-09-08T07:01:50.085Z,3876
2018-09-08T07:03:00.434Z,3896
2018-09-08T07:04:09.996Z,3912
2018-09-08T07:05:20.079Z,3928
2018-09-08T07:06:30.165Z,3940
2018-09-08T07:07:40.253Z,3988
2018-09-08T07:08:50.390Z,4060
2018-09-08T07:10:00.690Z,4128
2018-09-08T07:11:10.776Z,4204
2018-09-08T07:12:20.588Z,4296
2018-09-08T07:13:30.420Z,4328
2018-09-08T07:14:40.553Z,4392
2018-09-08T07:15:50.621Z,4448
2018-09-08T07:17:00.821Z,4516
2018-09-08T07:18:10.907Z,4592
2018-09-08T07:19:20.983Z,4668
2018-09-08T07:20:31.059Z,4712
2018-09-08T07:21:41.161Z,4784
2018-09-08T07:22:50.979Z,4852
2018-09-08T07:24:01.080Z,4912
2018-09-08T07:25:11.395Z,4932
2018-09-08T07:26:21.554Z,4968
2018-09-08T07:27:31.132Z,4968
2018-09-08T07:28:41.223Z,5000
2018-09-08T07:29:51.047Z,4976
2018-09-08T07:31:01.361Z,4972
2018-09-08T07:32:11.322Z,4864
2018-09-08T07:33:21.405Z,4836
2018-09-08T07:34:31.236Z,4764
2018-09-08T07:35:41.344Z,4696
2018-09-08T07:36:51.194Z,4648
2018-09-08T07:38:01.371Z,4620
2018-09-08T07:39:11.487Z,4536
2018-09-08T07:40:21.436Z,4548
2018-09-08T07:41:31.391Z,4540
2018-09-08T07:42:41.621Z,4516
2018-09-08T07:43:51.554Z,4568
2018-09-08T07:45:01.649Z,4580
2018-09-08T07:46:11.989Z,4564
2018-09-08T07:47:21.600Z,4592
2018-09-08T07:48:31.727Z,4636
2018-09-08T07:49:41.876Z,4500
2018-09-08T07:50:51.970Z,4668
2018-09-08T07:52:02.087Z,4684
2018-09-08T07:53:12.419Z,4672
2018-09-08T07:54:22.686Z,4672
2018-09-08T07:55:32.907Z,4668
2018-09-08T07:56:43.021Z,4648
2018-09-08T07:57:53.142Z,4624
2018-09-08T07:59:02.982Z,4632
2018-09-08T08:00:13.081Z,4596
2018-09-08T08:01:24.257Z,4584
2018-09-08T08:02:34.356Z,4544
2018-09-08T08:03:44.172Z,4500
2018-09-08T08:04:54.280Z,4464
2018-09-08T08:06:04.388Z,4456
2018-09-08T08:07:14.544Z,4392
2018-09-08T08:08:24.659Z,4320
2018-09-08T08:09:34.768Z,4376
2018-09-08T08:10:44.871Z,4376
2018-09-08T08:11:54.983Z,4368
2018-09-08T08:13:05.181Z,4424
2018-09-08T08:14:15.272Z,4404
2018-09-08T08:15:25.384Z,4436
2018-09-08T08:16:35.480Z,4412
2018-09-08T08:17:45.605Z,4500
2018-09-08T08:18:55.216Z,4480
2018-09-08T08:20:05.050Z,4500
2018-09-08T08:21:15.173Z,4536
2018-09-08T08:22:25.277Z,4568
2018-09-08T08:23:35.372Z,4580
2018-09-08T08:24:45.450Z,4624
2018-09-08T08:25:55.560Z,4644
2018-09-08T08:27:05.396Z,4604
2018-09-08T08:28:16.226Z,4656
2018-09-08T08:29:26.332Z,4664
2018-09-08T08:30:36.494Z,4716
2018-09-08T08:31:46.596Z,4736
2018-09-08T08:32:56.434Z,4764
2018-09-08T08:34:06.767Z,4788
2018-09-08T08:35:16.590Z,4812
2018-09-08T08:36:26.743Z,4844
2018-09-08T08:37:36.858Z,4760
2018-09-08T08:38:46.946Z,4816
2018-09-08T08:39:56.765Z,4804
2018-09-08T08:41:06.891Z,4764
2018-09-08T08:42:17.038Z,4776
2018-09-08T08:43:27.716Z,4660
2018-09-08T08:44:37.872Z,2968
2018-09-08T08:45:47.938Z,4748
2018-09-08T08:46:58.029Z,4792
2018-09-08T08:48:08.112Z,4796
2018-09-08T08:49:18.233Z,4780
2018-09-08T08:50:27.797Z,4816
2018-09-08T08:51:37.638Z,4812
2018-09-08T08:52:48.189Z,4828
2018-09-08T08:53:58.344Z,4828
2018-09-08T08:55:08.423Z,4832
2018-09-08T08:56:18.310Z,4860
2018-09-08T08:57:28.151Z,4896
2018-09-08T08:58:38.333Z,4936
2018-09-08T08:59:47.893Z,4952
2018-09-08T09:00:57.710Z,4976
2018-09-08T09:02:08.141Z,4912
2018-09-08T09:03:18.239Z,4940
2018-09-08T09:04:28.357Z,4944
2018-09-08T09:05:38.465Z,4956
2018-09-08T09:06:48.546Z,4976
2018-09-08T09:07:58.617Z,4956
2018-09-08T09:09:08.518Z,4960
2018-09-08T09:10:19.082Z,4940
2018-09-08T09:11:29.252Z,4988
2018-09-08T09:12:40.129Z,5080
2018-09-08T09:13:50.012Z,5116
2018-09-08T09:15:00.106Z,2512
2018-09-08T09:16:10.799Z,5128
2018-09-08T09:17:20.904Z,5192
2018-09-08T09:18:31.759Z,5336
2018-09-08T09:19:42.703Z,5296
2018-09-08T09:20:52.592Z,5328
2018-09-08T09:22:02.755Z,5440
2018-09-08T09:23:13.668Z,5564
2018-09-08T09:24:26.643Z,5604
2018-09-08T09:25:37.577Z,5652
2018-09-08T09:26:47.417Z,5752
2018-09-08T09:27:57.545Z,5760
2018-09-08T09:29:08.200Z,5764
2018-09-08T09:30:18.297Z,5688
2018-09-08T09:31:28.398Z,5580
2018-09-08T09:32:38.488Z,5644
2018-09-08T09:33:48.593Z,5524
2018-09-08T09:34:58.712Z,5644
2018-09-08T09:36:08.835Z,5620
2018-09-08T09:37:19.153Z,5608
2018-09-08T09:38:29.412Z,5636
2018-09-08T09:39:39.235Z,5612
2018-09-08T09:40:49.373Z,5708
2018-09-08T09:41:59.501Z,5700
2018-09-08T09:43:09.603Z,5660
2018-09-08T09:44:19.554Z,5812
2018-09-08T09:45:29.518Z,5776
2018-09-08T09:46:39.393Z,5712
2018-09-08T09:47:49.216Z,5612
2018-09-08T09:48:59.370Z,5512
2018-09-08T09:50:09.199Z,5548
2018-09-08T09:51:19.272Z,5540
2018-09-08T09:52:29.422Z,5636
2018-09-08T09:53:39.528Z,5688
2018-09-08T09:54:49.641Z,5728
2018-09-08T09:55:59.998Z,5788
2018-09-08T09:57:10.126Z,5784
2018-09-08T09:58:20.222Z,5736
2018-09-08T09:59:30.314Z,5676
2018-09-08T10:00:40.432Z,5940
2018-09-08T10:01:50.521Z,5988
2018-09-08T10:03:00.624Z,6016
2018-09-08T10:04:10.721Z,5956
2018-09-08T10:05:20.821Z,5892
2018-09-08T10:06:31.103Z,5592
2018-09-08T10:07:41.331Z,4272
2018-09-08T10:08:51.446Z,5172
2018-09-08T10:10:01.801Z,5080
2018-09-08T10:11:11.892Z,3588
2018-09-08T10:12:21.856Z,3776
2018-09-08T10:13:31.684Z,5236
2018-09-08T10:14:42.114Z,5436
2018-09-08T10:15:52.037Z,6120
2018-09-08T10:17:02.142Z,6148
2018-09-08T10:18:12.249Z,6052
2018-09-08T10:19:22.371Z,5980
2018-09-08T10:20:32.725Z,5968
2018-09-08T10:21:42.602Z,6068
2018-09-08T10:22:52.731Z,6204
2018-09-08T10:24:12.819Z,6428
2018-09-08T10:25:22.639Z,6668
2018-09-08T10:26:33.085Z,6688
2018-09-08T10:27:43.168Z,6620
2018-09-08T10:28:53.303Z,6564
2018-09-08T10:30:04.684Z,6468
2018-09-08T10:31:15.272Z,6360
2018-09-08T10:32:25.675Z,6188
2018-09-08T10:33:35.494Z,6084
2018-09-08T10:34:45.825Z,6144
2018-09-08T10:35:56.016Z,6228
2018-09-08T10:37:06.113Z,6232
2018-09-08T10:38:16.493Z,6384
2018-09-08T10:39:26.598Z,6360
2018-09-08T10:40:36.421Z,6488
2018-09-08T10:41:46.520Z,6580
2018-09-08T10:42:56.608Z,6544
2018-09-08T10:44:06.429Z,6424
2018-09-08T10:45:16.289Z,6296
2018-09-08T10:46:26.114Z,6132
2018-09-08T10:47:36.240Z,6064
2018-09-08T10:48:46.336Z,5928
2018-09-08T10:49:56.230Z,5980
2018-09-08T10:51:06.617Z,6056
2018-09-08T10:52:16.161Z,6280
2018-09-08T10:53:25.992Z,6228
2018-09-08T10:54:36.339Z,3092
2018-09-08T10:55:46.434Z,3212
2018-09-08T10:56:56.556Z,6560
2018-09-08T10:58:06.388Z,6588
2018-09-08T10:59:16.541Z,6708
2018-09-08T11:00:26.649Z,6732
2018-09-08T11:01:37.517Z,6704
2018-09-08T11:02:50.012Z,6720
2018-09-08T11:04:00.777Z,6752
2018-09-08T11:05:10.909Z,6656
2018-09-08T11:06:20.731Z,6552
2018-09-08T11:07:30.835Z,6484
2018-09-08T11:08:40.682Z,6472
2018-09-08T11:09:50.762Z,6648
2018-09-08T11:11:00.443Z,6944
2018-09-08T11:12:10.553Z,7168
2018-09-08T11:13:20.640Z,7300
2018-09-08T11:14:30.742Z,7156
2018-09-08T11:15:40.826Z,7132
2018-09-08T11:16:50.963Z,6904
2018-09-08T11:18:01.064Z,6864
2018-09-08T11:19:11.244Z,3416
2018-09-08T11:20:21.318Z,6576
2018-09-08T11:21:31.170Z,6684
2018-09-08T11:22:41.273Z,3048
2018-09-08T11:23:51.418Z,3000
2018-09-08T11:25:01.301Z,6828
2018-09-08T11:26:11.391Z,7084
2018-09-08T11:27:21.224Z,7164
2018-09-08T11:28:31.054Z,7152
2018-09-08T11:29:41.156Z,7164
2018-09-08T11:30:51.448Z,7088
2018-09-08T11:32:01.553Z,6984
2018-09-08T11:33:11.643Z,6928
2018-09-08T11:34:21.718Z,7076
2018-09-08T11:35:31.552Z,7164
2018-09-08T11:36:41.708Z,7076
2018-09-08T11:37:51.810Z,6988
2018-09-08T11:39:01.967Z,6952
2018-09-08T11:40:12.048Z,6972
2018-09-08T11:41:21.602Z,7064
2018-09-08T11:42:31.429Z,7012
2018-09-08T11:43:41.567Z,6788
2018-09-08T11:44:51.633Z,7016
2018-09-08T11:46:01.826Z,7232
2018-09-08T11:47:11.931Z,7320
2018-09-08T11:48:22.091Z,7412
2018-09-08T11:49:32.724Z,7588
2018-09-08T11:50:42.560Z,7640
2018-09-08T11:51:52.408Z,6104
2018-09-08T11:53:02.585Z,7552
2018-09-08T11:54:12.804Z,7484
2018-09-08T11:55:22.892Z,7492
2018-09-08T11:56:32.996Z,7656
2018-09-08T11:57:43.108Z,3628
2018-09-08T11:58:53.201Z,3308
2018-09-08T12:00:03.379Z,3276
2018-09-08T12:01:13.486Z,3280
2018-09-08T12:02:23.936Z,3264
2018-09-08T12:03:34.048Z,3296
2018-09-08T12:04:43.884Z,3516
2018-09-08T12:05:54.219Z,7588
2018-09-08T12:07:04.336Z,7776
2018-09-08T12:08:14.835Z,7256
2018-09-08T12:09:24.936Z,7924
2018-09-08T12:10:35.115Z,8112
2018-09-08T12:11:45.035Z,8236
2018-09-08T12:12:55.142Z,8288
2018-09-08T12:14:05.682Z,8220
2018-09-08T12:15:15.787Z,8128
2018-09-08T12:16:25.889Z,7976
2018-09-08T12:17:36.248Z,7796
2018-09-08T12:18:46.361Z,7592
2018-09-08T12:19:56.448Z,7436
2018-09-08T12:21:06.543Z,7344
2018-09-08T12:22:16.881Z,7240
2018-09-08T12:23:27.201Z,7172
2018-09-08T12:24:37.297Z,7052
2018-09-08T12:25:47.131Z,7028
2018-09-08T12:26:56.959Z,6948
2018-09-08T12:28:07.095Z,4004
2018-09-08T12:29:17.199Z,3356
2018-09-08T12:30:27.494Z,3100
2018-09-08T12:31:37.766Z,3232
2018-09-08T12:32:47.877Z,3508
2018-09-08T12:33:57.983Z,3784
2018-09-08T12:35:08.319Z,7620
2018-09-08T12:36:18.410Z,7392
2018-09-08T12:37:28.541Z,7296
2018-09-08T12:38:38.808Z,7168
2018-09-08T12:39:48.928Z,6816
2018-09-08T12:40:59.055Z,6724
2018-09-08T12:42:08.878Z,6612
2018-09-08T12:43:18.715Z,6584
2018-09-08T12:44:28.810Z,6304
2018-09-08T12:45:38.651Z,6240
2018-09-08T12:46:48.283Z,6180
2018-09-08T12:47:58.372Z,4016
2018-09-08T12:49:08.456Z,6380
2018-09-08T12:50:18.581Z,2980
2018-09-08T12:51:28.721Z,6432
2018-09-08T12:52:38.626Z,6332
2018-09-08T12:53:48.733Z,6404
2018-09-08T12:54:58.837Z,6336
2018-09-08T12:56:08.937Z,6340
2018-09-08T12:57:19.100Z,6488
2018-09-08T12:58:29.192Z,6516
2018-09-08T12:59:39.388Z,6376
2018-09-08T13:00:49.565Z,6212
2018-09-08T13:01:59.403Z,6124
2018-09-08T13:03:09.481Z,5964
2018-09-08T13:04:19.648Z,5872
2018-09-08T13:05:29.514Z,5764
2018-09-08T13:06:39.603Z,5816
2018-09-08T13:07:50.055Z,5728
2018-09-08T13:09:00.911Z,5704
2018-09-08T13:10:10.752Z,5788
2018-09-08T13:11:21.153Z,5780
2018-09-08T13:12:30.770Z,5724
2018-09-08T13:13:40.609Z,5728
2018-09-08T13:14:50.703Z,5688
2018-09-08T13:16:00.780Z,5692
2018-09-08T13:17:10.904Z,5752
2018-09-08T13:18:20.213Z,5740
2018-09-08T13:19:30.047Z,5728
2018-09-08T13:20:40.170Z,5660
2018-09-08T13:21:50.328Z,5688
2018-09-08T13:23:00.867Z,5676
2018-09-08T13:24:11.433Z,5672
2018-09-08T13:25:21.533Z,5584
2018-09-08T13:26:31.382Z,5544
2018-09-08T13:27:40.950Z,4488
2018-09-08T13:28:51.041Z,5444
2018-09-08T13:30:01.140Z,5328
2018-09-08T13:31:11.245Z,5204
2018-09-08T13:32:21.344Z,3032
2018-09-08T13:33:31.440Z,3920
2018-09-08T13:34:41.808Z,5372
2018-09-08T13:35:51.926Z,5544
2018-09-08T13:37:02.030Z,5448
2018-09-08T13:38:11.857Z,3380
2018-09-08T13:39:22.073Z,5276
2018-09-08T13:40:32.233Z,4672
2018-09-08T13:41:42.065Z,5136
2018-09-08T13:42:52.163Z,5000
2018-09-08T13:44:02.252Z,5128
2018-09-08T13:45:12.414Z,5196
2018-09-08T13:46:22.268Z,5176
2018-09-08T13:47:32.541Z,5096
2018-09-08T13:48:42.369Z,5140
2018-09-08T13:49:52.221Z,5112
2018-09-08T13:51:02.113Z,5116
2018-09-08T13:52:12.205Z,5076
2018-09-08T13:53:22.311Z,5008
2018-09-08T13:54:32.142Z,2888
2018-09-08T13:55:41.713Z,4620
2018-09-08T13:56:51.540Z,5080
2018-09-08T13:58:01.635Z,5024
2018-09-08T13:59:11.738Z,5128
2018-09-08T14:00:21.829Z,5060
2018-09-08T14:01:31.688Z,4992
2018-09-08T14:02:41.840Z,3080
2018-09-08T14:03:51.713Z,4896
2018-09-08T14:05:01.524Z,4656
2018-09-08T14:06:11.365Z,2668
2018-09-08T14:07:21.463Z,4824
2018-09-08T14:08:31.603Z,4740
2018-09-08T14:09:41.701Z,4712
2018-09-08T14:10:51.806Z,4664
2018-09-08T14:12:01.923Z,4728
2018-09-08T14:13:12.033Z,4676
2018-09-08T14:14:22.135Z,4636
2018-09-08T14:15:32.590Z,4624
2018-09-08T14:16:42.705Z,4596
2018-09-08T14:17:52.813Z,4572
2018-09-08T14:19:02.909Z,4576
2018-09-08T14:20:13.040Z,4536
2018-09-08T14:21:22.594Z,4472
2018-09-08T14:22:32.719Z,4476
2018-09-08T14:23:42.850Z,4380
2018-09-08T14:24:52.965Z,4396
2018-09-08T14:26:03.166Z,4412
2018-09-08T14:27:13.263Z,4384
2018-09-08T14:28:23.115Z,4348
2018-09-08T14:29:32.989Z,4252
2018-09-08T14:30:42.831Z,4216
2018-09-08T14:31:52.728Z,4256
2018-09-08T14:33:02.824Z,4236
2018-09-08T14:34:12.932Z,4276
2018-09-08T14:35:23.021Z,4260
2018-09-08T14:36:32.886Z,4248
2018-09-08T14:37:43.033Z,4212
2018-09-08T14:38:53.140Z,4176
2018-09-08T14:40:02.964Z,4092
2018-09-08T14:41:13.074Z,4092
2018-09-08T14:42:23.223Z,4076
2018-09-08T14:43:33.134Z,4016
2018-09-08T14:44:42.971Z,4024
2018-09-08T14:45:53.076Z,3992
2018-09-08T14:47:03.235Z,3980
2018-09-08T14:48:13.326Z,3964
2018-09-08T14:49:23.151Z,3924
2018-09-08T14:50:33.013Z,3856
2018-09-08T14:51:43.127Z,3852
2018-09-08T14:52:53.684Z,3860
2018-09-08T14:54:03.782Z,3836
2018-09-08T14:55:13.932Z,3796
2018-09-08T14:56:24.031Z,3748
2018-09-08T14:57:33.877Z,3744
2018-09-08T14:58:43.984Z,3680
2018-09-08T14:59:54.092Z,3600
2018-09-08T15:01:04.201Z,3576
2018-09-08T15:02:14.315Z,3564
2018-09-08T15:03:24.420Z,3556
2018-09-08T15:04:35.163Z,3516
2018-09-08T15:05:45.034Z,3520
2018-09-08T15:06:55.172Z,3504
2018-09-08T15:08:05.294Z,3488
2018-09-08T15:09:15.400Z,3464
2018-09-08T15:10:25.279Z,3432
2018-09-08T15:11:35.393Z,3448
2018-09-08T15:12:45.784Z,3436
2018-09-08T15:13:55.886Z,3400
2018-09-08T15:15:05.979Z,3344
2018-09-08T15:16:16.114Z,3368
2018-09-08T15:17:25.694Z,3328
2018-09-08T15:18:35.844Z,3296
2018-09-08T15:19:45.797Z,3248
2018-09-08T15:20:55.908Z,3224
2018-09-08T15:22:05.989Z,3204
2018-09-08T15:23:16.081Z,3196
2018-09-08T15:24:26.416Z,3168
2018-09-08T15:25:36.728Z,3136
2018-09-08T15:26:46.822Z,3108
2018-09-08T15:27:56.932Z,3088
2018-09-08T15:29:07.040Z,3096
2018-09-08T15:30:17.206Z,3068
2018-09-08T15:31:27.314Z,3012
2018-09-08T15:32:37.624Z,3008
2018-09-08T15:33:47.812Z,2980
2018-09-08T15:34:57.905Z,2932
2018-09-08T15:36:08.616Z,2904
2018-09-08T15:37:18.712Z,2880
2018-09-08T15:38:28.818Z,2852
2018-09-08T15:39:38.640Z,2808
2018-09-08T15:40:48.743Z,2776
2018-09-08T15:41:58.848Z,2732
2018-09-08T15:43:08.944Z,2688
2018-09-08T15:44:19.272Z,2664
2018-09-08T15:45:29.775Z,2636
2018-09-08T15:46:40.054Z,2608
2018-09-08T15:47:50.193Z,2576
2018-09-08T15:49:00.372Z,2536
2018-09-08T15:50:10.520Z,2508
2018-09-08T15:51:20.487Z,2460
2018-09-08T15:52:30.606Z,2428
2018-09-08T15:53:40.500Z,2380
2018-09-08T15:54:50.611Z,2360
2018-09-08T15:56:00.451Z,2328
2018-09-08T15:57:10.555Z,2284
2018-09-08T15:58:21.106Z,2268
2018-09-08T15:59:31.433Z,2248
2018-09-08T16:00:41.568Z,2220
2018-09-08T16:01:51.697Z,2188
2018-09-08T16:03:01.812Z,2180
2018-09-08T16:04:11.672Z,2148
2018-09-08T16:05:21.831Z,2112
2018-09-08T16:06:31.955Z,2080
2018-09-08T16:07:41.857Z,2036
2018-09-08T16:08:51.951Z,1988
2018-09-08T16:10:02.326Z,1968
2018-09-08T16:11:12.881Z,1936
2018-09-08T16:12:23.103Z,1912
2018-09-08T16:13:33.228Z,1872
2018-09-08T16:14:43.365Z,1852
2018-09-08T16:15:53.741Z,1812
2018-09-08T16:17:03.828Z,1768
2018-09-08T16:18:13.656Z,1744
2018-09-08T16:19:23.785Z,1708
2018-09-08T16:20:33.922Z,1664
2018-09-08T16:21:44.022Z,1644
2018-09-08T16:22:54.133Z,1604
2018-09-08T16:24:04.230Z,1572
2018-09-08T16:25:14.388Z,1540
2018-09-08T16:26:24.499Z,1500
2018-09-08T16:27:34.637Z,1452